Time;durP1;ratioP1;P1;durP2;ratioP2;P2;SDS_P1;SDS_P2;PMS_P1;PMS_P2;Temp;Humidity;BMP_temperature;BMP_pressure;BME280_temperature;BME280_humidity;BME280_pressure;Samples;Min_cycle;Max_cycle;Signal;HPM_P1;HPM_P2
2022/08/30 00:01:30;;;;;;;25.67;9.77;;;24.80;75.90;;;;;;5005977;28;20309;-62
2022/08/30 00:03:57;;;;;;;19.73;8.48;;;24.80;75.90;;;;;;5031627;28;20268;-62
2022/08/30 00:06:22;;;;;;;20.92;9.13;;;24.80;76.10;;;;;;5003995;28;20381;-62
2022/08/30 00:08:48;;;;;;;31.45;9.63;;;24.70;76.00;;;;;;5035321;28;20040;-62
2022/08/30 00:11:15;;;;;;;22.60;9.50;;;24.70;76.20;;;;;;5018257;28;20021;-61
2022/08/30 00:13:42;;;;;;;21.95;9.25;;;24.70;76.30;;;;;;5033972;28;20032;-64
2022/08/30 00:16:07;;;;;;;22.42;8.15;;;24.70;76.30;;;;;;5036281;28;20025;-63
2022/08/30 00:18:33;;;;;;;22.50;7.90;;;24.70;76.50;;;;;;5035277;28;20029;-62
2022/08/30 00:20:59;;;;;;;27.45;7.82;;;24.60;76.60;;;;;;5037411;28;20029;-62
2022/08/30 00:23:25;;;;;;;19.73;7.85;;;24.60;76.70;;;;;;5034363;28;20032;-62
2022/08/30 00:25:50;;;;;;;15.35;7.75;;;24.60;76.80;;;;;;5034976;28;20045;-61
2022/08/30 00:28:16;;;;;;;23.60;7.55;;;24.60;77.00;;;;;;5034710;28;20044;-61
2022/08/30 00:30:42;;;;;;;19.98;8.70;;;24.60;77.10;;;;;;5034962;28;20579;-61
2022/08/30 00:33:07;;;;;;;21.80;7.20;;;24.60;77.20;;;;;;5034813;28;20083;-62
2022/08/30 00:35:33;;;;;;;16.48;7.03;;;24.50;77.20;;;;;;5032325;28;20035;-62
2022/08/30 00:37:58;;;;;;;28.00;7.68;;;24.50;77.30;;;;;;5017045;28;20032;-63
2022/08/30 00:40:24;;;;;;;31.17;7.90;;;24.50;77.40;;;;;;5031539;28;20562;-62
2022/08/30 00:42:50;;;;;;;14.68;7.13;;;24.40;77.50;;;;;;5019896;28;20044;-62
2022/08/30 00:45:27;;;;;;;17.42;7.25;;;24.40;77.40;;;;;;5003977;28;20068;-62
2022/08/30 00:47:53;;;;;;;17.85;7.53;;;24.40;77.50;;;;;;5033389;28;20048;-62
2022/08/30 00:50:20;;;;;;;19.75;7.43;;;24.40;77.60;;;;;;5035900;28;20020;-62
2022/08/30 00:52:47;;;;;;;14.50;6.95;;;24.40;77.70;;;;;;5020892;28;20803;-62
2022/08/30 00:55:13;;;;;;;17.77;7.72;;;24.30;77.60;;;;;;5032641;28;20465;-62
2022/08/30 00:57:40;;;;;;;14.25;7.38;;;24.30;77.70;;;;;;5002757;28;20061;-63
2022/08/30 01:00:07;;;;;;;20.08;7.40;;;24.30;77.70;;;;;;5016796;28;20079;-62
2022/08/30 01:02:32;;;;;;;17.30;7.75;;;24.30;77.80;;;;;;5015079;28;20051;-62
2022/08/30 01:04:58;;;;;;;18.30;8.60;;;24.30;77.80;;;;;;5032649;28;20320;-62
2022/08/30 01:07:25;;;;;;;25.52;8.70;;;24.20;77.80;;;;;;5018385;28;20029;-62
2022/08/30 01:09:50;;;;;;;16.30;8.60;;;24.20;77.90;;;;;;5032497;28;20040;-62
2022/08/30 01:12:16;;;;;;;21.90;9.48;;;24.20;77.90;;;;;;5019170;28;20033;-62
2022/08/30 01:14:41;;;;;;;26.08;8.77;;;24.20;77.90;;;;;;5033128;28;20079;-62
2022/08/30 01:17:08;;;;;;;27.27;9.15;;;24.20;78.00;;;;;;5031000;28;20049;-63
2022/08/30 01:20:01;;;;;;;14.35;8.48;;;24.20;78.10;;;;;;5034416;28;20091;-62
2022/08/30 01:22:43;;;;;;;13.93;7.90;;;24.20;78.20;;;;;;5020531;28;20530;-62
2022/08/30 01:25:09;;;;;;;13.25;7.78;;;24.10;78.20;;;;;;5015788;28;20169;-62
2022/08/30 01:27:37;;;;;;;12.68;7.90;;;24.10;78.30;;;;;;5017449;28;20037;-63
2022/08/30 01:30:04;;;;;;;15.93;7.15;;;24.10;78.40;;;;;;5015864;28;20029;-62
2022/08/30 01:32:30;;;;;;;11.30;6.97;;;24.00;78.40;;;;;;5033121;28;20040;-62
2022/08/30 01:34:55;;;;;;;13.00;6.72;;;24.10;78.50;;;;;;5032913;28;20487;-62
2022/08/30 01:37:26;;;;;;;16.55;7.70;;;24.00;78.50;;;;;;5016795;28;20033;-62
2022/08/30 01:39:53;;;;;;;12.90;7.25;;;24.00;78.50;;;;;;5037071;28;20040;-62
2022/08/30 01:42:19;;;;;;;19.38;7.20;;;24.00;78.60;;;;;;5035129;28;20041;-62
2022/08/30 01:44:45;;;;;;;13.57;6.55;;;23.90;78.60;;;;;;5032018;28;20597;-62
2022/08/30 01:47:11;;;;;;;12.88;6.63;;;24.00;78.80;;;;;;5032153;28;20942;-62
2022/08/30 01:49:37;;;;;;;12.20;8.02;;;23.90;78.70;;;;;;5016489;28;20025;-63
2022/08/30 01:52:03;;;;;;;16.67;7.07;;;23.90;78.80;;;;;;5036366;28;20025;-62
2022/08/30 01:54:30;;;;;;;12.95;6.88;;;23.90;78.90;;;;;;5031315;28;20128;-62
2022/08/30 01:56:55;;;;;;;11.30;6.47;;;23.80;78.90;;;;;;5033370;28;20484;-62
2022/08/30 01:59:21;;;;;;;10.07;6.40;;;23.80;79.00;;;;;;5031948;28;20094;-62
2022/08/30 02:01:46;;;;;;;13.57;6.05;;;23.80;79.20;;;;;;5033451;28;20852;-62
2022/08/30 02:04:13;;;;;;;9.20;6.65;;;23.70;79.20;;;;;;5017647;28;20045;-62
2022/08/30 02:06:39;;;;;;;12.70;6.57;;;23.70;79.30;;;;;;5030244;28;20512;-62
2022/08/30 02:09:04;;;;;;;10.15;6.68;;;23.70;79.30;;;;;;5031818;28;20039;-62
2022/08/30 02:11:30;;;;;;;15.02;6.50;;;23.70;79.30;;;;;;5015846;28;20100;-62
2022/08/30 02:13:55;;;;;;;11.07;6.60;;;23.70;79.30;;;;;;5032648;28;20033;-61
2022/08/30 02:16:22;;;;;;;9.73;6.53;;;23.70;79.30;;;;;;5035373;28;20072;-62
2022/08/30 02:18:48;;;;;;;10.82;5.90;;;23.70;79.30;;;;;;5032929;28;20032;-62
2022/08/30 02:21:14;;;;;;;13.55;6.80;;;23.70;79.40;;;;;;5013733;28;20044;-62
2022/08/30 02:23:39;;;;;;;9.50;5.75;;;23.60;79.50;;;;;;5013249;28;20037;-62
2022/08/30 02:26:05;;;;;;;10.50;6.32;;;23.60;79.50;;;;;;5031530;28;20033;-62
2022/08/30 02:28:31;;;;;;;9.88;6.20;;;23.60;79.70;;;;;;5031756;28;20086;-62
2022/08/30 02:30:56;;;;;;;7.65;6.18;;;23.60;79.60;;;;;;5029058;28;20033;-62
2022/08/30 02:33:22;;;;;;;10.73;5.80;;;23.50;79.60;;;;;;5015221;28;20116;-62
2022/08/30 02:35:47;;;;;;;15.35;6.65;;;23.50;79.70;;;;;;5033335;28;20025;-62
2022/08/30 02:38:13;;;;;;;8.93;6.18;;;23.50;79.80;;;;;;5032979;28;20029;-62
2022/08/30 02:40:38;;;;;;;11.07;5.93;;;23.50;80.00;;;;;;5032830;28;20041;-62
2022/08/30 02:43:04;;;;;;;9.52;5.50;;;23.50;80.10;;;;;;5030981;28;20044;-62
2022/08/30 02:45:29;;;;;;;11.15;6.18;;;23.40;80.10;;;;;;5035012;28;20394;-61
2022/08/30 02:47:57;;;;;;;12.07;6.68;;;23.40;80.10;;;;;;5015561;28;20684;-62
2022/08/30 02:50:23;;;;;;;10.93;5.65;;;23.40;80.10;;;;;;5029935;28;20120;-61
2022/08/30 02:52:49;;;;;;;9.07;5.20;;;23.40;80.20;;;;;;5036163;28;20116;-62
2022/08/30 02:55:15;;;;;;;6.90;5.35;;;23.40;80.20;;;;;;5032557;28;20029;-62
2022/08/30 02:57:40;;;;;;;9.20;5.63;;;23.30;80.30;;;;;;5012467;28;20385;-61
2022/08/30 03:00:11;;;;;;;7.97;5.95;;;23.30;80.40;;;;;;5034184;28;20025;-62
2022/08/30 03:02:37;;;;;;;5.80;5.20;;;23.30;80.50;;;;;;5033800;28;20169;-61
2022/08/30 03:05:03;;;;;;;9.18;5.90;;;23.30;80.60;;;;;;5033885;28;20029;-61
2022/08/30 03:07:28;;;;;;;6.97;6.28;;;23.30;80.70;;;;;;5031568;28;20060;-62
2022/08/30 03:09:54;;;;;;;10.57;7.03;;;23.20;80.60;;;;;;5032661;28;20032;-62
2022/08/30 03:12:19;;;;;;;7.38;5.93;;;23.20;80.70;;;;;;5034135;28;20459;-62
2022/08/30 03:14:45;;;;;;;11.55;6.18;;;23.20;80.80;;;;;;5034392;28;20395;-61
2022/08/30 03:17:10;;;;;;;8.70;6.05;;;23.20;80.90;;;;;;5034768;28;20032;-62
2022/08/30 03:19:36;;;;;;;8.40;6.38;;;23.20;80.90;;;;;;5031236;28;20033;-62
2022/08/30 03:22:05;;;;;;;8.10;5.93;;;23.10;80.90;;;;;;5031286;28;20497;-62
2022/08/30 03:24:31;;;;;;;7.22;6.03;;;23.10;81.00;;;;;;5035584;28;20052;-61
2022/08/30 03:26:56;;;;;;;8.80;6.05;;;23.10;81.00;;;;;;5034830;28;20173;-63
2022/08/30 03:29:22;;;;;;;12.05;6.28;;;23.10;81.10;;;;;;5019440;28;20033;-62
2022/08/30 03:31:47;;;;;;;6.80;6.10;;;23.10;81.00;;;;;;5033112;28;20505;-61
2022/08/30 03:34:13;;;;;;;7.15;6.32;;;23.10;81.10;;;;;;5032332;28;20033;-62
2022/08/30 03:36:39;;;;;;;8.85;6.22;;;23.10;81.10;;;;;;5031078;28;20029;-62
2022/08/30 03:39:05;;;;;;;8.27;5.60;;;23.10;81.20;;;;;;5029122;28;20477;-62
2022/08/30 03:41:31;;;;;;;10.23;6.45;;;23.00;81.20;;;;;;5029486;28;20380;-63
2022/08/30 03:43:57;;;;;;;6.28;5.65;;;23.00;81.20;;;;;;5031421;28;20037;-62
2022/08/30 03:46:22;;;;;;;8.43;5.60;;;23.00;81.30;;;;;;5033592;28;20064;-63
2022/08/30 03:48:48;;;;;;;10.15;6.07;;;23.00;81.40;;;;;;5031566;28;20134;-63
2022/08/30 03:51:14;;;;;;;7.63;6.53;;;23.00;81.40;;;;;;5029982;28;20033;-63
2022/08/30 03:53:39;;;;;;;7.28;6.25;;;23.00;81.30;;;;;;5016028;28;20048;-63
2022/08/30 03:56:05;;;;;;;9.93;6.45;;;23.00;81.40;;;;;;5028558;28;20459;-62
2022/08/30 03:58:30;;;;;;;7.10;6.15;;;22.90;81.50;;;;;;5027209;28;20042;-62
2022/08/30 04:00:56;;;;;;;11.13;6.95;;;22.90;81.60;;;;;;5030881;28;20528;-63
2022/08/30 04:03:25;;;;;;;9.93;8.27;;;22.90;81.60;;;;;;5031822;28;20022;-64
2022/08/30 04:05:52;;;;;;;8.98;6.85;;;22.90;81.70;;;;;;5032299;28;20065;-60
2022/08/30 04:08:18;;;;;;;11.43;7.50;;;22.90;81.70;;;;;;5030428;28;20029;-61
2022/08/30 04:10:43;;;;;;;7.85;6.07;;;22.80;81.70;;;;;;5016286;28;20084;-61
2022/08/30 04:13:09;;;;;;;9.23;6.55;;;22.90;81.90;;;;;;5029637;28;20065;-60
2022/08/30 04:15:34;;;;;;;8.13;6.00;;;22.80;82.00;;;;;;5029119;28;20124;-61
2022/08/30 04:18:00;;;;;;;7.45;6.13;;;22.80;82.00;;;;;;5031624;28;20112;-61
2022/08/30 04:20:26;;;;;;;10.45;6.43;;;22.80;82.10;;;;;;5036263;28;20032;-64
2022/08/30 04:22:51;;;;;;;9.90;6.50;;;22.80;82.20;;;;;;5032371;28;20429;-63
2022/08/30 04:25:17;;;;;;;7.97;6.38;;;22.80;82.20;;;;;;5034271;28;20044;-63
2022/08/30 04:27:44;;;;;;;8.93;6.53;;;22.70;82.20;;;;;;5035244;28;20029;-63
2022/08/30 04:30:10;;;;;;;7.38;6.05;;;22.70;82.20;;;;;;5033532;28;20025;-63
2022/08/30 04:32:37;;;;;;;7.90;6.22;;;22.70;82.30;;;;;;5035072;28;20029;-61
2022/08/30 04:35:03;;;;;;;11.00;6.82;;;22.70;82.30;;;;;;5033137;28;20233;-61
2022/08/30 04:37:28;;;;;;;7.60;5.95;;;22.70;82.40;;;;;;5020051;28;20166;-61
2022/08/30 04:39:59;;;;;;;6.22;5.45;;;22.70;82.50;;;;;;5035280;28;20044;-63
2022/08/30 04:42:28;;;;;;;6.72;5.90;;;22.60;82.50;;;;;;5017283;28;20044;-63
2022/08/30 04:44:54;;;;;;;8.32;5.70;;;22.70;82.60;;;;;;5035291;28;20087;-61
2022/08/30 04:47:19;;;;;;;10.05;6.05;;;22.70;82.60;;;;;;5032165;28;20540;-64
2022/08/30 04:49:45;;;;;;;11.35;6.30;;;22.60;82.60;;;;;;5036280;28;20543;-61
2022/08/30 04:52:11;;;;;;;8.85;6.00;;;22.60;82.60;;;;;;5017846;28;20571;-60
2022/08/30 04:54:36;;;;;;;7.30;6.28;;;22.60;82.50;;;;;;5034272;28;20082;-61
2022/08/30 04:57:02;;;;;;;7.55;6.15;;;22.60;82.50;;;;;;5034534;28;20451;-63
2022/08/30 04:59:27;;;;;;;7.20;6.18;;;22.60;82.50;;;;;;5035391;28;20025;-64
2022/08/30 05:01:53;;;;;;;6.45;5.55;;;22.60;82.70;;;;;;5031648;28;20099;-63
2022/08/30 05:04:18;;;;;;;6.70;5.97;;;22.60;82.80;;;;;;5030516;28;20025;-61
2022/08/30 05:06:44;;;;;;;7.45;6.22;;;22.60;82.80;;;;;;5015834;28;20039;-61
2022/08/30 05:09:10;;;;;;;8.98;5.85;;;22.60;82.80;;;;;;5030487;28;20068;-61
2022/08/30 05:11:37;;;;;;;6.30;5.63;;;22.60;82.80;;;;;;5030019;28;20025;-61
2022/08/30 05:14:03;;;;;;;11.55;5.97;;;22.50;82.80;;;;;;5035047;28;20067;-62
2022/08/30 05:16:28;;;;;;;7.47;5.80;;;22.50;82.90;;;;;;5032564;28;20045;-61
2022/08/30 05:18:54;;;;;;;6.55;5.95;;;22.60;82.90;;;;;;5031870;28;20030;-61
2022/08/30 05:21:22;;;;;;;10.15;6.10;;;22.50;82.90;;;;;;5033063;28;20801;-61
2022/08/30 05:23:48;;;;;;;8.30;6.07;;;22.50;82.90;;;;;;5033420;28;20318;-61
2022/08/30 05:26:19;;;;;;;6.85;5.90;;;22.50;82.90;;;;;;5032296;28;20052;-61
2022/08/30 05:28:45;;;;;;;7.10;5.95;;;22.50;82.90;;;;;;5031620;28;20032;-62
2022/08/30 05:31:12;;;;;;;6.43;5.82;;;22.50;83.00;;;;;;5033936;28;20029;-61
2022/08/30 05:33:38;;;;;;;6.95;5.55;;;22.50;83.00;;;;;;5020011;28;20064;-63
2022/08/30 05:36:07;;;;;;;7.60;5.78;;;22.50;83.00;;;;;;5035801;28;20445;-62
2022/08/30 05:38:32;;;;;;;7.93;6.22;;;22.50;83.00;;;;;;5034144;28;20036;-62
2022/08/30 05:40:58;;;;;;;7.25;5.57;;;22.50;83.10;;;;;;5035701;28;20106;-61
2022/08/30 05:43:24;;;;;;;8.77;6.00;;;22.40;83.00;;;;;;5032339;28;20527;-61
2022/08/30 05:46:07;;;;;;;6.47;5.88;;;22.50;83.00;;;;;;5032278;28;20043;-62
2022/08/30 05:48:33;;;;;;;7.15;5.80;;;22.50;82.90;;;;;;5017731;28;20465;-62
2022/08/30 05:51:11;;;;;;;5.88;5.28;;;22.50;83.00;;;;;;5034208;28;20052;-62
2022/08/30 05:53:37;;;;;;;7.43;5.90;;;22.50;83.10;;;;;;5016897;28;20037;-61
2022/08/30 05:56:04;;;;;;;10.13;5.85;;;22.50;83.00;;;;;;5033005;28;20323;-62
2022/08/30 05:58:30;;;;;;;9.35;6.40;;;22.50;83.00;;;;;;5018788;28;20497;-61
2022/08/30 06:00:55;;;;;;;8.35;6.25;;;22.50;83.40;;;;;;5032363;28;20036;-62
2022/08/30 06:03:21;;;;;;;8.25;6.70;;;22.40;84.20;;;;;;5034243;28;20384;-62
2022/08/30 06:05:46;;;;;;;10.05;6.82;;;22.30;85.20;;;;;;5036015;28;20025;-62
2022/08/30 06:08:12;;;;;;;12.68;6.90;;;22.30;85.70;;;;;;5032319;28;20036;-62
2022/08/30 06:10:37;;;;;;;8.80;6.80;;;22.20;86.40;;;;;;5031029;28;20480;-62
2022/08/30 06:13:03;;;;;;;7.43;6.10;;;22.10;87.00;;;;;;5030339;28;20528;-62
2022/08/30 06:15:28;;;;;;;16.33;7.43;;;22.10;87.30;;;;;;5011792;28;20559;-62
2022/08/30 06:17:54;;;;;;;9.95;6.43;;;22.00;87.80;;;;;;5033206;28;20037;-62
2022/08/30 06:20:19;;;;;;;12.15;7.35;;;21.90;88.20;;;;;;5032141;28;20124;-62
2022/08/30 06:22:45;;;;;;;11.40;6.95;;;21.90;88.60;;;;;;5032872;28;20156;-62
2022/08/30 06:25:11;;;;;;;10.48;7.57;;;21.80;89.10;;;;;;5011857;28;20041;-63
2022/08/30 06:27:36;;;;;;;11.23;7.10;;;21.80;89.20;;;;;;5028038;28;20045;-62
2022/08/30 06:30:04;;;;;;;11.15;7.40;;;21.70;89.40;;;;;;5035907;28;20064;-62
2022/08/30 06:32:29;;;;;;;7.68;6.97;;;21.70;89.60;;;;;;5015489;28;21373;-61
2022/08/30 06:34:55;;;;;;;8.93;7.03;;;21.70;89.80;;;;;;5032410;28;20026;-62
2022/08/30 06:37:20;;;;;;;13.10;7.15;;;21.70;90.20;;;;;;5034046;28;20397;-61
2022/08/30 06:39:46;;;;;;;12.10;7.38;;;21.70;90.00;;;;;;5033305;28;20136;-62
2022/08/30 06:42:11;;;;;;;9.77;7.63;;;21.70;90.10;;;;;;5029833;28;20498;-62
2022/08/30 06:44:38;;;;;;;10.13;8.20;;;21.60;90.20;;;;;;5012103;28;20326;-63
2022/08/30 06:47:04;;;;;;;11.95;8.25;;;21.60;90.40;;;;;;5025261;28;20420;-62
2022/08/30 06:49:29;;;;;;;10.90;7.75;;;21.60;90.40;;;;;;5015164;28;20594;-62
2022/08/30 06:51:55;;;;;;;14.15;8.30;;;21.60;90.40;;;;;;5030436;28;20041;-61
2022/08/30 06:54:21;;;;;;;10.82;7.80;;;21.70;90.60;;;;;;5031507;28;20060;-63
2022/08/30 06:56:46;;;;;;;9.48;8.02;;;21.70;90.80;;;;;;5027000;28;20120;-63
2022/08/30 06:59:12;;;;;;;16.23;7.68;;;21.60;90.80;;;;;;5026996;28;20462;-62
2022/08/30 07:01:38;;;;;;;17.58;8.77;;;21.60;90.80;;;;;;5029481;28;20067;-62
2022/08/30 07:04:03;;;;;;;14.00;8.38;;;21.60;90.80;;;;;;5014431;28;20059;-62
2022/08/30 07:06:29;;;;;;;12.50;8.35;;;21.70;90.80;;;;;;5031764;28;20405;-63
2022/08/30 07:08:55;;;;;;;12.30;7.45;;;21.70;90.80;;;;;;5028279;28;20024;-62
2022/08/30 07:11:34;;;;;;;12.82;7.78;;;21.70;90.80;;;;;;5016074;28;20496;-62
2022/08/30 07:14:00;;;;;;;11.95;7.78;;;21.70;90.70;;;;;;5028904;28;20033;-63
2022/08/30 07:16:25;;;;;;;12.40;7.78;;;21.70;90.70;;;;;;5016434;28;20036;-62
2022/08/30 07:18:53;;;;;;;11.23;8.27;;;21.80;90.70;;;;;;5027719;28;21155;-63
2022/08/30 07:21:25;;;;;;;17.20;7.68;;;21.70;90.70;;;;;;5018184;28;20037;-64
2022/08/30 07:23:51;;;;;;;19.25;8.27;;;21.70;90.70;;;;;;5032319;28;20468;-64
2022/08/30 07:26:18;;;;;;;29.27;9.38;;;21.70;90.70;;;;;;5008636;28;20549;-64
2022/08/30 07:28:44;;;;;;;18.90;8.52;;;21.80;91.00;;;;;;5024728;28;21273;-63
2022/08/30 07:31:10;;;;;;;16.52;8.60;;;21.70;91.10;;;;;;5012790;28;20023;-63
2022/08/30 07:33:35;;;;;;;28.13;8.32;;;21.80;91.20;;;;;;5026367;28;20029;-63
2022/08/30 07:36:03;;;;;;;24.73;8.55;;;21.80;91.10;;;;;;5014121;28;20065;-63
2022/08/30 07:38:29;;;;;;;25.52;9.18;;;21.80;91.20;;;;;;5033900;28;20025;-63
2022/08/30 07:40:57;;;;;;;55.00;9.90;;;21.80;91.20;;;;;;5033808;28;20106;-63
2022/08/30 07:43:23;;;;;;;49.10;11.50;;;21.80;91.00;;;;;;5025580;28;20055;-63
2022/08/30 07:45:49;;;;;;;30.63;9.77;;;21.80;91.20;;;;;;5033916;28;20187;-63
2022/08/30 07:48:14;;;;;;;25.35;9.48;;;21.90;91.10;;;;;;5032772;28;20058;-63
2022/08/30 07:50:43;;;;;;;26.85;9.43;;;21.90;91.20;;;;;;5033002;28;20025;-63
2022/08/30 07:53:09;;;;;;;26.58;9.90;;;21.90;91.00;;;;;;5039031;28;20544;-62
2022/08/30 07:55:34;;;;;;;48.08;11.20;;;21.90;91.00;;;;;;5027460;28;20040;-63
2022/08/30 07:57:59;;;;;;;23.42;10.00;;;22.00;91.00;;;;;;5034004;28;20037;-63
2022/08/30 08:00:25;;;;;;;35.28;10.18;;;21.90;91.00;;;;;;5037359;28;20466;-63
2022/08/30 08:02:51;;;;;;;28.50;9.48;;;22.00;90.90;;;;;;5014579;28;20147;-63
2022/08/30 08:05:16;;;;;;;40.05;10.88;;;22.00;90.70;;;;;;5032015;28;20033;-63
2022/08/30 08:07:42;;;;;;;53.33;11.35;;;22.10;90.70;;;;;;5031134;28;20687;-64
2022/08/30 08:10:08;;;;;;;36.72;10.75;;;22.10;90.70;;;;;;5012601;28;20036;-63
2022/08/30 08:12:33;;;;;;;32.58;9.25;;;22.10;90.70;;;;;;5038984;28;20025;-63
2022/08/30 08:14:59;;;;;;;34.72;9.10;;;22.10;90.50;;;;;;5039128;28;20041;-63
2022/08/30 08:17:24;;;;;;;27.25;8.50;;;22.20;90.40;;;;;;5038400;28;20569;-63
2022/08/30 08:19:50;;;;;;;35.85;9.30;;;22.20;90.50;;;;;;5036259;28;20373;-63
2022/08/30 08:22:15;;;;;;;31.88;9.48;;;22.20;90.50;;;;;;5044314;28;20051;-63
2022/08/30 08:24:41;;;;;;;29.02;9.05;;;22.30;90.60;;;;;;5040287;28;20073;-62
2022/08/30 08:27:07;;;;;;;32.20;10.20;;;22.30;90.50;;;;;;5030093;28;20186;-63
2022/08/30 08:29:33;;;;;;;25.05;9.23;;;22.30;90.40;;;;;;5029332;28;20111;-64
2022/08/30 08:31:59;;;;;;;35.28;9.93;;;22.40;90.40;;;;;;5035759;28;20070;-63
2022/08/30 08:34:24;;;;;;;33.60;9.45;;;22.40;90.40;;;;;;5036419;28;20033;-63
2022/08/30 08:36:50;;;;;;;33.70;9.27;;;22.40;90.40;;;;;;5037039;28;20032;-63
2022/08/30 08:39:15;;;;;;;41.17;10.10;;;22.40;90.40;;;;;;5014359;28;20037;-62
2022/08/30 08:42:03;;;;;;;27.33;8.57;;;22.50;90.40;;;;;;5036421;28;20453;-63
2022/08/30 08:45:02;;;;;;;33.75;9.38;;;22.60;90.30;;;;;;5035187;28;20041;-62
2022/08/30 08:47:39;;;;;;;25.17;9.15;;;22.60;90.30;;;;;;5014196;28;20276;-63
2022/08/30 08:50:11;;;;;;;28.88;8.90;;;22.70;90.30;;;;;;5007205;28;20024;-64
2022/08/30 08:55:52;;;;;;;31.63;10.35;;;22.80;90.00;;;;;;5032932;28;20175;-64
2022/08/30 08:58:23;;;;;;;52.70;12.27;;;22.80;90.20;;;;;;5035745;28;22964;-64
2022/08/30 09:00:49;;;;;;;36.20;9.85;;;22.90;90.20;;;;;;5021256;28;20863;-63
2022/08/30 09:03:15;;;;;;;49.97;11.40;;;22.90;90.00;;;;;;5013710;28;20040;-63
2022/08/30 09:05:42;;;;;;;50.47;10.63;;;22.90;90.00;;;;;;5028148;28;20025;-64
2022/08/30 09:08:09;;;;;;;40.67;10.65;;;23.00;90.20;;;;;;5016810;28;20124;-64
2022/08/30 09:10:35;;;;;;;46.33;9.90;;;23.10;90.20;;;;;;5034886;28;20376;-63
2022/08/30 09:13:00;;;;;;;29.98;10.07;;;23.00;90.10;;;;;;5012886;28;20025;-63
2022/08/30 09:15:28;;;;;;;39.30;9.82;;;23.10;90.00;;;;;;5015968;28;20068;-63
2022/08/30 09:17:58;;;;;;;44.42;9.95;;;23.10;89.90;;;;;;5028348;28;20025;-63
2022/08/30 09:20:31;;;;;;;45.20;10.63;;;23.10;90.00;;;;;;5013315;28;20029;-63
2022/08/30 09:22:57;;;;;;;52.47;10.98;;;23.20;89.90;;;;;;5027496;28;20013;-62
2022/08/30 09:25:26;;;;;;;38.53;9.80;;;23.20;89.80;;;;;;5035249;28;20028;-63
2022/08/30 09:27:52;;;;;;;38.33;11.02;;;23.20;89.90;;;;;;5030754;28;20331;-63
2022/08/30 09:30:25;;;;;;;24.95;9.13;;;23.20;89.80;;;;;;5029502;28;20045;-63
2022/08/30 09:33:01;;;;;;;33.78;10.05;;;23.30;89.70;;;;;;5027327;28;20067;-64
2022/08/30 09:35:47;;;;;;;26.58;8.85;;;23.30;89.80;;;;;;5028110;28;20124;-63
2022/08/30 09:38:22;;;;;;;25.98;8.68;;;23.40;89.60;;;;;;5027358;28;20033;-63
2022/08/30 09:40:50;;;;;;;56.45;11.30;;;23.40;89.30;;;;;;5029664;28;20512;-64
2022/08/30 09:43:15;;;;;;;45.22;10.98;;;23.40;89.50;;;;;;5019077;28;20538;-63
2022/08/30 09:45:59;;;;;;;39.35;10.35;;;23.50;89.30;;;;;;5029220;28;20136;-63
2022/08/30 09:48:41;;;;;;;32.35;10.13;;;23.50;89.00;;;;;;5026403;28;20029;-64
2022/08/30 09:51:12;;;;;;;27.35;9.18;;;23.50;88.80;;;;;;5031571;28;20048;-64
2022/08/30 09:54:04;;;;;;;35.33;10.05;;;23.50;88.50;;;;;;5021026;28;20044;-63
2022/08/30 09:56:59;;;;;;;39.85;10.20;;;23.60;88.80;;;;;;5013317;28;20037;-63
2022/08/30 09:59:46;;;;;;;36.22;9.60;;;23.60;88.60;;;;;;5027462;28;22103;-61
2022/08/30 10:02:30;;;;;;;61.88;10.80;;;23.60;88.60;;;;;;5026248;28;20041;-61
2022/08/30 10:05:31;;;;;;;48.65;10.23;;;23.70;88.40;;;;;;5022316;28;20025;-61
2022/08/30 10:08:18;;;;;;;41.15;11.35;;;23.70;88.80;;;;;;5030387;28;20033;-62
2022/08/30 10:11:04;;;;;;;46.50;9.70;;;23.80;87.90;;;;;;5025559;28;20029;-62
2022/08/30 10:13:49;;;;;;;;;;;23.90;87.70;;;;;;5016779;28;20042;-63
2022/08/30 10:16:39;;;;;;;74.53;12.15;;;24.00;87.40;;;;;;5025175;28;20856;-61
2022/08/30 10:19:35;;;;;;;40.28;10.68;;;24.00;87.30;;;;;;5014137;28;20083;-61
2022/08/30 10:22:21;;;;;;;35.60;9.80;;;24.10;87.10;;;;;;5030662;28;20024;-61
2022/08/30 10:24:52;;;;;;;44.95;10.80;;;24.10;86.90;;;;;;5017700;28;20079;-61
2022/08/30 10:27:27;;;;;;;56.53;11.68;;;24.10;86.70;;;;;;5013283;28;20516;-61
2022/08/30 10:30:01;;;;;;;80.75;15.23;;;24.20;86.50;;;;;;4999846;28;20284;-63
2022/08/30 10:32:47;;;;;;;74.90;11.80;;;24.20;86.40;;;;;;5014401;28;20665;-62
2022/08/30 10:35:17;;;;;;;;;;;24.30;86.40;;;;;;5027416;28;20039;-61
2022/08/30 10:38:01;;;;;;;63.90;11.70;;;24.40;86.20;;;;;;5026536;28;19916;-62
2022/08/30 10:43:45;;;;;;;44.53;10.35;;;24.50;85.70;;;;;;5023440;28;20862;-61
2022/08/30 10:46:15;;;;;;;47.00;11.13;;;24.50;85.70;;;;;;5011854;28;20078;-61
2022/08/30 10:48:42;;;;;;;36.65;10.80;;;24.60;85.50;;;;;;5007933;28;20028;-61
2022/08/30 10:51:11;;;;;;;41.67;10.05;;;24.60;85.50;;;;;;5028214;28;20090;-61
2022/08/30 10:53:43;;;;;;;32.70;10.05;;;24.60;85.50;;;;;;5032102;28;20025;-62
2022/08/30 10:56:11;;;;;;;39.45;10.82;;;24.60;85.50;;;;;;5013564;28;20028;-61
2022/08/30 10:58:38;;;;;;;28.42;9.75;;;24.70;85.60;;;;;;5001948;28;20029;-62
2022/08/30 11:01:38;;;;;;;48.10;10.23;;;24.80;85.40;;;;;;5009369;28;20029;-62
2022/08/30 11:04:22;;;;;;;40.85;10.02;;;24.80;84.90;;;;;;5029365;28;20029;-62
2022/08/30 11:07:04;;;;;;;30.05;9.48;;;24.80;84.20;;;;;;5032570;28;20037;-65
2022/08/30 11:09:48;;;;;;;66.65;11.15;;;24.90;84.10;;;;;;5027356;28;20538;-67
2022/08/30 11:12:26;;;;;;;28.35;10.02;;;24.90;84.10;;;;;;5027680;28;20059;-64
2022/08/30 11:14:52;;;;;;;26.50;8.60;;;25.00;83.90;;;;;;5011935;28;20037;-62
2022/08/30 11:17:44;;;;;;;29.95;9.38;;;25.00;83.60;;;;;;4999413;28;20025;-62
2022/08/30 11:20:38;;;;;;;37.45;9.40;;;25.00;83.40;;;;;;5012891;28;20025;-62
2022/08/30 11:23:32;;;;;;;33.63;9.82;;;25.10;83.30;;;;;;5029847;28;20060;-63
2022/08/30 11:26:00;;;;;;;27.00;8.48;;;25.10;83.10;;;;;;5015254;28;20024;-61
2022/08/30 11:28:35;;;;;;;24.95;7.68;;;25.10;82.60;;;;;;5018423;28;20735;-61
2022/08/30 11:31:30;;;;;;;31.97;8.33;;;25.20;82.40;;;;;;5033229;28;20112;-61
2022/08/30 11:33:58;;;;;;;28.83;9.32;;;25.30;82.10;;;;;;5025180;28;20299;-61
2022/08/30 11:36:37;;;;;;;27.80;8.25;;;25.30;81.90;;;;;;5033572;28;20052;-62
2022/08/30 11:39:09;;;;;;;20.15;8.27;;;25.40;81.80;;;;;;5036135;28;20017;-64
2022/08/30 11:41:42;;;;;;;26.80;8.15;;;25.40;81.70;;;;;;5022331;28;20500;-62
2022/08/30 11:44:20;;;;;;;23.90;9.00;;;25.40;81.70;;;;;;5036372;28;20049;-62
2022/08/30 11:46:48;;;;;;;30.65;9.18;;;25.50;81.70;;;;;;5035513;28;20037;-62
2022/08/30 11:49:25;;;;;;;20.73;7.72;;;25.50;81.70;;;;;;5016729;28;20411;-62
2022/08/30 11:52:00;;;;;;;33.67;8.30;;;25.60;81.40;;;;;;5031657;28;20025;-62
2022/08/30 11:54:29;;;;;;;35.33;8.53;;;25.60;81.50;;;;;;5036721;28;20029;-63
2022/08/30 11:57:11;;;;;;;36.78;8.52;;;25.70;81.20;;;;;;5020396;28;20029;-64
2022/08/30 11:59:57;;;;;;;27.17;8.57;;;25.70;81.00;;;;;;5035662;28;20045;-62
2022/08/30 12:02:41;;;;;;;19.77;7.00;;;25.70;80.60;;;;;;5032822;28;20037;-61
2022/08/30 12:05:07;;;;;;;23.10;8.23;;;25.80;80.60;;;;;;5033070;28;20026;-62
2022/08/30 12:07:58;;;;;;;24.33;7.88;;;25.80;80.30;;;;;;5008858;28;20622;-62
2022/08/30 12:10:38;;;;;;;21.63;7.93;;;25.80;79.50;;;;;;5034797;28;20082;-61
2022/08/30 12:13:04;;;;;;;19.30;7.05;;;25.90;79.50;;;;;;5030102;28;22182;-62
2022/08/30 12:16:01;;;;;;;14.90;7.18;;;26.00;78.90;;;;;;5034738;28;20045;-61
2022/08/30 12:18:31;;;;;;;13.45;6.88;;;26.10;78.70;;;;;;5029854;28;20469;-62
2022/08/30 12:21:03;;;;;;;12.10;6.43;;;26.20;78.30;;;;;;5009220;28;20025;-62
2022/08/30 12:23:51;;;;;;;14.23;7.30;;;26.30;77.90;;;;;;5009907;28;20388;-63
2022/08/30 12:26:29;;;;;;;25.30;7.55;;;26.40;77.60;;;;;;5036157;28;20029;-62
2022/08/30 12:29:08;;;;;;;14.13;6.95;;;26.50;77.70;;;;;;5035794;28;20528;-61
2022/08/30 12:31:41;;;;;;;21.75;7.13;;;26.50;77.20;;;;;;5035784;28;20528;-62
2022/08/30 12:34:06;;;;;;;24.02;8.32;;;26.60;76.90;;;;;;5031921;28;20469;-65
2022/08/30 12:36:40;;;;;;;42.28;9.80;;;26.60;76.60;;;;;;5036179;28;20155;-63
2022/08/30 12:39:14;;;;;;;40.78;9.20;;;26.60;76.50;;;;;;5009812;28;20080;-62
2022/08/30 12:41:40;;;;;;;26.52;8.55;;;26.70;76.40;;;;;;5030083;28;20025;-62
2022/08/30 12:44:08;;;;;;;35.85;7.60;;;26.70;76.40;;;;;;5019949;28;20396;-61
2022/08/30 12:46:33;;;;;;;32.60;8.45;;;26.80;76.20;;;;;;5031420;28;20037;-61
2022/08/30 12:48:59;;;;;;;27.48;8.15;;;26.80;76.10;;;;;;5032125;28;20031;-62
2022/08/30 12:51:40;;;;;;;25.25;7.03;;;26.90;75.70;;;;;;5016128;28;20080;-62
2022/08/30 12:54:27;;;;;;;22.52;7.53;;;26.90;75.40;;;;;;5004010;28;20542;-62
2022/08/30 12:57:02;;;;;;;26.85;8.07;;;27.00;74.80;;;;;;5030639;28;20051;-65